CAL7 weather

Ganges (Lady Minto / Gulf Islands Hospital) Heliport
Ganges, British Columbia, Canada

Public forecast

Using degrees Celsius for public forecast. Weather courtesy of forecast.io.

METAR (pilot weather report)

Closest report is Victoria International Airport, 13.4 nm (24.7 km) SSE. Retrieved 2019/09/22 07:00 UTC (37 minutes ago):

CYYJ 220700Z 09005KT 15SM -RA SCT048 OVC096 14/14 A2993 RMK SC3AC5 SLP136

TAF (pilot weather forecast)

Closest forecast is Victoria International Airport, 13.4 nm (24.7 km) SSE. Retrieved 2019/09/22 06:42 UTC (55 minutes ago):

TAF TAF CYYJ 220538Z 2206/2306 VRB03KT P6SM BKN040 OVC060 TEMPO 2206/2209 P6SM -RA FEW020 OVC030 FM220900 13008KT P6SM -RA SCT020 OVC040 TEMPO 2209/2216 5SM -RA BR SCT008 BKN020 OVC040 BECMG 2211/2213 14010G20KT FM221600 19010KT P6SM SCT020 BKN040 TEMPO 2216/2304 P6SM -SHRA BECMG 2220/2222 20010KT BECMG 2300/2302 26008KT RMK NXT FCST BY 221200Z